createdAt,value
2023-05-07T00:02:26.691Z,16.55
2023-05-07T00:04:53.361Z,17.52
2023-05-07T00:07:19.809Z,16.60
2023-05-07T00:09:46.178Z,17.75
2023-05-07T00:12:12.622Z,17.48
2023-05-07T00:14:38.970Z,15.95
2023-05-07T00:17:05.369Z,17.23
2023-05-07T00:19:32.753Z,17.60
2023-05-07T00:21:59.313Z,18.67
2023-05-07T00:24:25.821Z,18.33
2023-05-07T00:26:53.639Z,17.85
2023-05-07T00:29:20.051Z,18.17
2023-05-07T00:31:46.507Z,19.98
2023-05-07T00:34:12.889Z,19.40
2023-05-07T00:36:39.288Z,18.75
2023-05-07T00:39:05.683Z,19.23
2023-05-07T00:41:32.071Z,17.38
2023-05-07T00:43:58.774Z,15.93
2023-05-07T00:46:25.398Z,14.67
2023-05-07T00:48:51.956Z,15.07
2023-05-07T00:51:18.788Z,14.35
2023-05-07T00:53:46.132Z,13.52
2023-05-07T00:56:12.943Z,14.07
2023-05-07T00:58:39.615Z,14.38
2023-05-07T01:01:05.994Z,13.48
2023-05-07T01:03:32.524Z,13.40
2023-05-07T01:06:00.671Z,14.98
2023-05-07T01:08:30.391Z,15.02
2023-05-07T01:10:58.183Z,16.08
2023-05-07T01:13:25.706Z,15.48
2023-05-07T01:18:18.754Z,16.67
2023-05-07T01:20:46.069Z,17.38
2023-05-07T01:23:13.314Z,18.05
2023-05-07T01:25:39.692Z,19.02
2023-05-07T01:28:06.788Z,18.65
2023-05-07T01:30:35.651Z,18.20
2023-05-07T01:33:02.074Z,19.23
2023-05-07T01:35:33.348Z,18.45
2023-05-07T01:37:59.755Z,18.92
2023-05-07T01:40:26.805Z,17.08
2023-05-07T01:42:53.899Z,18.40
2023-05-07T01:45:20.662Z,18.15
2023-05-07T01:47:47.511Z,18.93
2023-05-07T01:50:16.752Z,19.83
2023-05-07T01:52:43.192Z,19.88
2023-05-07T01:55:09.830Z,21.45
2023-05-07T01:57:36.497Z,21.87
2023-05-07T02:00:07.177Z,21.23
2023-05-07T02:02:34.069Z,21.58
2023-05-07T02:05:01.395Z,19.35
2023-05-07T02:07:28.504Z,18.83
2023-05-07T02:09:56.320Z,19.27
2023-05-07T02:12:23.691Z,19.35
2023-05-07T02:14:50.827Z,19.48
2023-05-07T02:17:17.216Z,19.83
2023-05-07T02:19:43.552Z,20.25
2023-05-07T02:22:10.814Z,21.33
2023-05-07T02:24:37.187Z,21.70
2023-05-07T02:27:04.238Z,21.05
2023-05-07T02:29:30.886Z,20.90
2023-05-07T02:31:57.309Z,20.60
2023-05-07T02:34:24.760Z,19.88
2023-05-07T02:36:51.168Z,19.13
2023-05-07T02:39:17.804Z,19.02
2023-05-07T02:41:44.183Z,18.87
2023-05-07T02:44:10.614Z,19.50
2023-05-07T02:46:36.978Z,19.95
2023-05-07T02:49:03.353Z,20.63
2023-05-07T02:51:31.557Z,21.98
2023-05-07T02:53:58.130Z,22.63
2023-05-07T02:56:26.920Z,22.58
2023-05-07T02:58:53.325Z,21.92
2023-05-07T03:01:19.862Z,22.17
2023-05-07T03:03:46.236Z,22.67
2023-05-07T03:06:12.615Z,23.00
2023-05-07T03:08:38.970Z,23.73
2023-05-07T03:11:05.927Z,24.95
2023-05-07T03:13:32.295Z,25.50
2023-05-07T03:15:58.677Z,23.30
2023-05-07T03:18:25.048Z,21.77
2023-05-07T03:20:51.484Z,23.35
2023-05-07T03:23:17.858Z,23.88
2023-05-07T03:25:44.254Z,25.42
2023-05-07T03:28:10.601Z,24.00
2023-05-07T03:30:36.996Z,23.98
2023-05-07T03:33:03.438Z,22.58
2023-05-07T03:35:29.836Z,22.92
2023-05-07T03:37:56.519Z,22.73
2023-05-07T03:40:22.886Z,22.43
2023-05-07T03:42:49.254Z,21.50
2023-05-07T03:45:15.704Z,21.08
2023-05-07T03:47:42.325Z,19.80
2023-05-07T03:50:09.519Z,21.27
2023-05-07T03:52:36.270Z,21.60
2023-05-07T03:55:02.641Z,23.25
2023-05-07T03:57:28.985Z,22.73
2023-05-07T03:59:55.348Z,22.05
2023-05-07T04:02:21.721Z,23.98
2023-05-07T04:04:50.377Z,23.10
2023-05-07T04:07:17.219Z,21.70
2023-05-07T04:09:43.594Z,22.15
2023-05-07T04:12:09.937Z,22.98
2023-05-07T04:14:36.311Z,23.08
2023-05-07T04:17:03.732Z,24.02
2023-05-07T04:19:30.311Z,25.38
2023-05-07T04:21:56.680Z,24.70
2023-05-07T04:24:23.024Z,26.08
2023-05-07T04:26:49.367Z,25.27
2023-05-07T04:29:15.697Z,25.38
2023-05-07T04:31:45.309Z,24.92
2023-05-07T04:34:12.554Z,25.83
2023-05-07T04:36:39.436Z,24.05
2023-05-07T04:39:05.934Z,25.48
2023-05-07T04:41:34.008Z,24.00
2023-05-07T04:44:00.509Z,24.55
2023-05-07T04:46:26.941Z,23.80
2023-05-07T04:48:53.410Z,22.60
2023-05-07T04:51:19.774Z,20.45
2023-05-07T04:53:46.118Z,21.40
2023-05-07T04:56:12.508Z,21.48
2023-05-07T04:58:38.967Z,21.65
2023-05-07T05:01:05.801Z,20.00
2023-05-07T05:03:32.258Z,20.67
2023-05-07T05:06:00.758Z,19.38
2023-05-07T05:08:27.540Z,19.45
2023-05-07T05:10:53.899Z,19.80
2023-05-07T05:13:20.428Z,19.80
2023-05-07T05:15:47.065Z,19.33
2023-05-07T05:18:13.517Z,18.20
2023-05-07T05:20:39.998Z,19.08
2023-05-07T05:23:07.012Z,18.50
2023-05-07T05:25:33.559Z,17.02
2023-05-07T05:27:59.973Z,17.88
2023-05-07T05:30:26.365Z,17.48
2023-05-07T05:32:52.804Z,16.73
2023-05-07T05:35:19.285Z,15.95
2023-05-07T05:37:45.693Z,16.13
2023-05-07T05:40:12.587Z,16.25
2023-05-07T05:42:39.200Z,16.77
2023-05-07T05:45:06.337Z,16.95
2023-05-07T05:47:32.729Z,16.25
2023-05-07T05:49:59.103Z,16.73
2023-05-07T05:52:26.015Z,16.20
2023-05-07T05:54:52.390Z,16.65
2023-05-07T05:57:18.836Z,16.77
2023-05-07T05:59:45.846Z,14.85
2023-05-07T06:02:12.241Z,13.20
2023-05-07T06:04:38.662Z,10.68
2023-05-07T06:07:05.123Z,9.48
2023-05-07T06:09:31.465Z,7.53
2023-05-07T06:12:00.349Z,7.90
2023-05-07T06:14:27.117Z,7.00
2023-05-07T06:16:53.482Z,7.30
2023-05-07T06:19:24.028Z,6.70
2023-05-07T06:21:51.142Z,6.65
2023-05-07T06:24:17.549Z,6.22
2023-05-07T06:26:44.266Z,6.18
2023-05-07T06:29:10.697Z,5.40
2023-05-07T06:31:37.137Z,5.85
2023-05-07T06:34:03.575Z,5.60
2023-05-07T06:36:30.475Z,5.63
2023-05-07T06:38:56.928Z,5.40
2023-05-07T06:41:23.325Z,5.90
2023-05-07T06:43:49.790Z,6.05
2023-05-07T06:46:16.607Z,6.00
2023-05-07T06:48:43.138Z,6.00
2023-05-07T06:51:09.514Z,5.70
2023-05-07T06:53:36.480Z,5.70
2023-05-07T06:56:02.933Z,6.32
2023-05-07T06:58:29.323Z,6.47
2023-05-07T07:00:55.745Z,6.13
2023-05-07T07:03:22.183Z,5.22
2023-05-07T07:05:48.560Z,5.18
2023-05-07T07:08:15.643Z,5.40
2023-05-07T07:10:42.020Z,5.43
2023-05-07T07:13:08.430Z,5.10
2023-05-07T07:15:34.854Z,5.30
2023-05-07T07:18:01.295Z,5.47
2023-05-07T07:20:27.781Z,5.45
2023-05-07T07:22:54.159Z,5.75
2023-05-07T07:25:20.591Z,5.25
2023-05-07T07:27:47.166Z,5.68
2023-05-07T07:30:14.092Z,5.40
2023-05-07T07:32:40.561Z,6.15
2023-05-07T07:35:07.567Z,5.70
2023-05-07T07:37:34.018Z,6.03
2023-05-07T07:40:00.929Z,5.72
2023-05-07T07:42:27.415Z,6.53
2023-05-07T07:44:53.761Z,6.70
2023-05-07T07:47:20.147Z,9.40
2023-05-07T07:49:46.571Z,10.50
2023-05-07T07:52:12.942Z,9.20
2023-05-07T07:54:39.334Z,9.13
2023-05-07T07:57:06.072Z,10.68
2023-05-07T07:59:32.460Z,9.40
2023-05-07T08:01:58.919Z,11.52
2023-05-07T08:04:25.499Z,13.85
2023-05-07T08:06:51.985Z,19.60
2023-05-07T08:09:18.381Z,9.32
2023-05-07T08:11:44.965Z,10.20
2023-05-07T08:14:12.306Z,10.07
2023-05-07T08:16:38.767Z,12.57
2023-05-07T08:19:05.249Z,9.82
2023-05-07T08:21:34.455Z,8.98
2023-05-07T08:24:01.179Z,9.90
2023-05-07T08:26:27.583Z,10.48
2023-05-07T08:28:53.955Z,10.02
2023-05-07T08:31:23.538Z,8.75
2023-05-07T08:33:51.153Z,9.45
2023-05-07T08:36:17.536Z,9.05
2023-05-07T08:38:46.570Z,9.05
2023-05-07T08:41:13.038Z,10.18
2023-05-07T08:43:42.169Z,9.13
2023-05-07T08:46:12.390Z,9.38
2023-05-07T08:48:38.899Z,9.32
2023-05-07T08:51:06.371Z,8.60
2023-05-07T08:53:32.819Z,8.93
2023-05-07T08:55:59.874Z,8.68
2023-05-07T08:58:26.258Z,9.30
2023-05-07T09:00:54.111Z,8.88
2023-05-07T09:03:20.813Z,9.50
2023-05-07T09:05:47.282Z,9.57
2023-05-07T09:08:17.074Z,9.88
2023-05-07T09:10:43.655Z,9.95
2023-05-07T09:13:11.700Z,9.50
2023-05-07T09:15:38.176Z,11.50
2023-05-07T09:18:04.748Z,9.77
2023-05-07T09:20:31.879Z,9.30
2023-05-07T09:22:58.219Z,8.02
2023-05-07T09:25:35.051Z,7.97
2023-05-07T09:28:02.876Z,9.25
2023-05-07T09:30:33.440Z,9.10
2023-05-07T09:33:01.335Z,8.52
2023-05-07T09:35:28.553Z,8.68
2023-05-07T09:37:56.633Z,8.57
2023-05-07T09:40:24.873Z,8.77
2023-05-07T09:42:51.674Z,9.07
2023-05-07T09:45:29.754Z,6.85
2023-05-07T09:47:57.792Z,7.25
2023-05-07T09:50:30.017Z,6.65
2023-05-07T09:52:56.924Z,6.20
2023-05-07T09:55:24.143Z,6.28
2023-05-07T09:57:52.104Z,7.50
2023-05-07T10:00:22.247Z,7.30
2023-05-07T10:02:53.916Z,8.13
2023-05-07T10:05:21.403Z,8.48
2023-05-07T10:07:48.565Z,7.70
2023-05-07T10:10:16.715Z,8.40
2023-05-07T10:12:43.358Z,8.52
2023-05-07T10:15:11.646Z,8.60
2023-05-07T10:17:40.265Z,8.15
2023-05-07T10:20:08.643Z,7.00
2023-05-07T10:22:46.403Z,6.38
2023-05-07T10:25:23.709Z,6.03
2023-05-07T10:32:52.294Z,6.15
2023-05-07T10:35:23.855Z,5.70
2023-05-07T10:37:50.599Z,6.10
2023-05-07T10:40:18.768Z,6.28
2023-05-07T10:43:10.187Z,6.15
2023-05-07T10:45:37.451Z,6.35
2023-05-07T10:48:28.696Z,5.70
2023-05-07T10:51:22.459Z,6.38
2023-05-07T10:53:48.825Z,6.53
2023-05-07T10:56:17.877Z,6.20
2023-05-07T10:58:44.269Z,5.90
2023-05-07T11:01:12.210Z,5.97
2023-05-07T11:04:13.986Z,6.13
2023-05-07T11:06:40.611Z,5.68
2023-05-07T11:09:07.013Z,4.93
2023-05-07T11:11:52.439Z,5.35
2023-05-07T11:14:43.830Z,5.18
2023-05-07T11:17:11.124Z,5.00
2023-05-07T11:19:54.956Z,5.25
2023-05-07T11:22:33.921Z,5.65
2023-05-07T11:25:01.061Z,5.72
2023-05-07T11:27:27.991Z,5.70
2023-05-07T11:29:54.347Z,5.50
2023-05-07T11:32:24.859Z,5.40
2023-05-07T11:34:55.724Z,4.38
2023-05-07T11:37:23.611Z,5.20
2023-05-07T11:39:50.721Z,5.03
2023-05-07T11:42:29.407Z,5.10
2023-05-07T11:44:55.788Z,5.60
2023-05-07T11:47:22.419Z,5.15
2023-05-07T11:49:49.876Z,4.20
2023-05-07T11:52:17.887Z,4.60
2023-05-07T11:54:58.870Z,4.70
2023-05-07T11:57:25.750Z,4.82
2023-05-07T11:59:59.511Z,5.07
2023-05-07T12:02:26.874Z,5.05
2023-05-07T12:09:48.367Z,4.80
2023-05-07T12:12:18.408Z,4.47
2023-05-07T12:14:46.233Z,4.38
2023-05-07T12:17:15.547Z,4.47
2023-05-07T12:19:43.975Z,4.25
2023-05-07T12:22:11.002Z,4.22
2023-05-07T12:24:51.358Z,3.80
2023-05-07T12:27:18.237Z,3.80
2023-05-07T12:29:48.495Z,3.70
2023-05-07T12:32:19.288Z,3.10
2023-05-07T12:34:46.851Z,3.55
2023-05-07T12:39:48.628Z,3.67
2023-05-07T12:42:21.138Z,4.05
2023-05-07T12:44:47.727Z,3.83
2023-05-07T12:47:15.943Z,4.00
2023-05-07T12:49:42.402Z,3.72
2023-05-07T12:52:08.883Z,3.58
2023-05-07T12:54:38.580Z,3.58
2023-05-07T12:57:09.411Z,3.80
2023-05-07T12:59:42.787Z,3.67
2023-05-07T13:02:10.275Z,3.33
2023-05-07T13:04:36.949Z,3.45
2023-05-07T13:07:03.678Z,3.58
2023-05-07T13:09:30.271Z,3.53
2023-05-07T13:11:56.772Z,3.40
2023-05-07T13:14:23.188Z,3.85
2023-05-07T13:16:50.327Z,3.63
2023-05-07T13:19:16.895Z,3.70
2023-05-07T13:21:43.225Z,3.47
2023-05-07T13:24:09.614Z,3.58
2023-05-07T13:26:36.042Z,3.42
2023-05-07T13:29:02.533Z,3.42
2023-05-07T13:31:29.069Z,3.28
2023-05-07T13:33:57.190Z,3.58
2023-05-07T13:36:23.618Z,4.03
2023-05-07T13:38:52.585Z,3.50
2023-05-07T13:41:19.148Z,3.67
2023-05-07T13:43:45.523Z,3.30
2023-05-07T13:46:12.360Z,3.63
2023-05-07T13:48:38.803Z,3.00
2023-05-07T13:51:05.550Z,3.30
2023-05-07T13:53:31.888Z,2.95
2023-05-07T13:55:58.280Z,3.08
2023-05-07T13:58:24.620Z,3.42
2023-05-07T14:00:51.106Z,3.38
2023-05-07T14:03:18.636Z,3.88
2023-05-07T14:05:45.697Z,4.00
2023-05-07T14:08:14.815Z,4.40
2023-05-07T14:10:41.459Z,4.53
2023-05-07T14:13:07.869Z,4.63
2023-05-07T14:15:34.383Z,4.75
2023-05-07T14:18:01.192Z,4.97
2023-05-07T14:20:27.629Z,4.90
2023-05-07T14:22:54.002Z,5.00
2023-05-07T14:25:20.593Z,4.20
2023-05-07T14:27:47.088Z,4.60
2023-05-07T14:30:13.737Z,4.18
2023-05-07T14:32:40.195Z,4.07
2023-05-07T14:35:06.803Z,4.30
2023-05-07T14:37:33.174Z,4.70
2023-05-07T14:39:59.540Z,4.30
2023-05-07T14:42:26.402Z,5.40
2023-05-07T14:44:53.949Z,5.10
2023-05-07T14:49:46.762Z,5.38
2023-05-07T14:52:13.251Z,5.47
2023-05-07T14:54:39.787Z,5.25
2023-05-07T14:57:07.445Z,5.10
2023-05-07T14:59:34.137Z,5.70
2023-05-07T15:02:01.239Z,5.83
2023-05-07T15:04:29.013Z,6.10
2023-05-07T15:06:55.386Z,5.75
2023-05-07T15:09:21.724Z,8.13
2023-05-07T15:11:48.148Z,7.50
2023-05-07T15:14:14.582Z,11.02
2023-05-07T15:16:41.133Z,7.68
2023-05-07T15:19:07.586Z,6.07
2023-05-07T15:21:35.672Z,6.00
2023-05-07T15:24:02.786Z,5.78
2023-05-07T15:26:30.089Z,7.25
2023-05-07T15:28:58.229Z,8.07
2023-05-07T15:31:26.184Z,7.50
2023-05-07T15:33:52.988Z,7.63
2023-05-07T15:36:20.930Z,5.90
2023-05-07T15:38:47.370Z,5.53
2023-05-07T15:41:13.780Z,6.07
2023-05-07T15:43:46.925Z,5.95
2023-05-07T15:46:13.532Z,6.78
2023-05-07T15:48:40.040Z,6.77
2023-05-07T15:51:08.819Z,6.35
2023-05-07T15:53:35.722Z,5.47
2023-05-07T15:56:02.117Z,5.60
2023-05-07T15:58:28.476Z,5.57
2023-05-07T16:00:54.902Z,5.45
2023-05-07T16:03:22.981Z,5.25
2023-05-07T16:05:49.433Z,5.38
2023-05-07T16:08:15.865Z,4.88
2023-05-07T16:10:42.246Z,13.10
2023-05-07T16:13:08.681Z,7.57
2023-05-07T16:15:35.176Z,14.63
2023-05-07T16:18:01.573Z,7.38
2023-05-07T16:20:32.185Z,5.28
2023-05-07T16:22:59.029Z,5.10
2023-05-07T16:25:25.428Z,5.00
2023-05-07T16:27:53.064Z,4.72
2023-05-07T16:30:19.439Z,5.15
2023-05-07T16:32:45.890Z,5.03
2023-05-07T16:35:12.555Z,4.90
2023-05-07T16:37:42.391Z,5.20
2023-05-07T16:40:09.362Z,5.07
2023-05-07T16:42:36.426Z,4.70
2023-05-07T16:45:04.545Z,4.22
2023-05-07T16:47:31.844Z,4.18
2023-05-07T16:50:00.489Z,4.20
2023-05-07T16:52:28.899Z,4.28
2023-05-07T16:54:58.340Z,4.03
2023-05-07T16:57:25.637Z,4.30
2023-05-07T16:59:52.762Z,3.80
2023-05-07T17:02:19.870Z,4.03
2023-05-07T17:04:46.287Z,4.15
2023-05-07T17:07:12.753Z,4.05
2023-05-07T17:09:39.127Z,4.75
2023-05-07T17:12:05.803Z,4.38
2023-05-07T17:14:32.158Z,4.50
2023-05-07T17:16:58.519Z,4.20
2023-05-07T17:19:25.026Z,4.68
2023-05-07T17:21:51.460Z,4.57
2023-05-07T17:24:17.897Z,4.68
2023-05-07T17:26:44.249Z,4.47
2023-05-07T17:29:10.682Z,4.65
2023-05-07T17:31:37.098Z,5.05
2023-05-07T17:34:03.568Z,4.53
2023-05-07T17:36:29.981Z,4.65
2023-05-07T17:38:56.324Z,4.82
2023-05-07T17:41:22.866Z,5.38
2023-05-07T17:43:49.215Z,5.28
2023-05-07T17:46:15.611Z,4.95
2023-05-07T17:48:42.076Z,5.00
2023-05-07T17:51:09.606Z,4.93
2023-05-07T17:56:02.492Z,4.93
2023-05-07T17:58:28.969Z,5.18
2023-05-07T18:00:55.523Z,5.78
2023-05-07T18:03:24.358Z,6.60
2023-05-07T18:05:51.169Z,5.95
2023-05-07T18:08:17.570Z,5.73
2023-05-07T18:10:43.952Z,5.35
2023-05-07T18:13:10.491Z,5.95
2023-05-07T18:15:36.899Z,5.85
2023-05-07T18:18:03.679Z,5.72
2023-05-07T18:20:30.270Z,6.68
2023-05-07T18:22:56.665Z,6.85
2023-05-07T18:25:23.203Z,6.30
2023-05-07T18:27:49.543Z,6.05
2023-05-07T18:30:16.126Z,6.28
2023-05-07T18:32:42.556Z,6.25
2023-05-07T18:35:09.193Z,6.05
2023-05-07T18:37:35.559Z,6.57
2023-05-07T18:40:04.052Z,6.68
2023-05-07T18:42:32.715Z,5.90
2023-05-07T18:45:01.438Z,5.85
2023-05-07T18:49:56.121Z,6.20
2023-05-07T18:52:22.755Z,5.80
2023-05-07T18:54:50.791Z,6.23
2023-05-07T18:57:17.585Z,5.82
2023-05-07T18:59:44.961Z,5.60
2023-05-07T19:02:14.429Z,5.60
2023-05-07T19:04:40.955Z,6.20
2023-05-07T19:07:07.543Z,5.93
2023-05-07T19:09:33.904Z,5.93
2023-05-07T19:12:00.279Z,5.30
2023-05-07T19:14:26.999Z,5.18
2023-05-07T19:16:53.368Z,5.70
2023-05-07T19:19:19.816Z,5.60
2023-05-07T19:21:49.808Z,5.80
2023-05-07T19:24:17.047Z,5.53
2023-05-07T19:26:43.664Z,6.00
2023-05-07T19:29:17.593Z,6.30
2023-05-07T19:31:45.539Z,6.72
2023-05-07T19:34:13.892Z,6.28
2023-05-07T19:36:40.533Z,6.50
2023-05-07T19:39:07.064Z,6.70
2023-05-07T19:41:33.575Z,6.38
2023-05-07T19:44:00.179Z,6.15
2023-05-07T19:46:26.739Z,5.97
2023-05-07T19:48:53.162Z,6.25
2023-05-07T19:51:19.682Z,5.65
2023-05-07T19:53:46.155Z,6.10
2023-05-07T19:56:12.591Z,5.63
2023-05-07T19:58:39.388Z,5.65
2023-05-07T20:01:06.254Z,5.53
2023-05-07T20:03:34.075Z,5.40
2023-05-07T20:06:01.207Z,4.70
2023-05-07T20:08:28.320Z,4.75
2023-05-07T20:10:57.595Z,4.35
2023-05-07T20:13:24.389Z,4.38
2023-05-07T20:15:50.929Z,4.85
2023-05-07T20:18:17.440Z,4.43
2023-05-07T20:20:45.273Z,4.88
2023-05-07T20:23:11.664Z,4.40
2023-05-07T20:25:40.668Z,5.10
2023-05-07T20:28:07.071Z,4.53
2023-05-07T20:30:33.458Z,4.68
2023-05-07T20:32:59.981Z,4.13
2023-05-07T20:35:26.378Z,4.25
2023-05-07T20:37:52.736Z,4.53
2023-05-07T20:40:19.316Z,4.10
2023-05-07T20:42:45.710Z,4.10
2023-05-07T20:45:12.207Z,4.85
2023-05-07T20:47:38.681Z,4.13
2023-05-07T20:50:05.574Z,4.40
2023-05-07T20:52:32.031Z,5.07
2023-05-07T20:54:58.415Z,4.57
2023-05-07T20:57:24.897Z,4.30
2023-05-07T20:59:51.328Z,4.47
2023-05-07T21:02:17.836Z,4.55
2023-05-07T21:04:46.708Z,4.65
2023-05-07T21:07:13.138Z,4.65
2023-05-07T21:09:39.499Z,4.68
2023-05-07T21:12:06.263Z,4.85
2023-05-07T21:14:32.621Z,4.40
2023-05-07T21:17:00.309Z,4.90
2023-05-07T21:19:26.951Z,4.63
2023-05-07T21:21:57.641Z,4.95
2023-05-07T21:24:24.678Z,4.70
2023-05-07T21:26:53.430Z,4.80
2023-05-07T21:29:20.207Z,4.93
2023-05-07T21:31:46.683Z,4.80
2023-05-07T21:34:13.086Z,5.00
2023-05-07T21:36:39.543Z,5.00
2023-05-07T21:39:08.667Z,5.00
2023-05-07T21:41:36.305Z,4.60
2023-05-07T21:46:29.809Z,5.30
2023-05-07T21:48:56.190Z,4.90
2023-05-07T21:51:22.662Z,5.32
2023-05-07T21:53:48.990Z,4.93
2023-05-07T21:56:15.393Z,5.00
2023-05-07T21:58:41.735Z,4.65
2023-05-07T22:01:12.336Z,5.00
2023-05-07T22:03:39.616Z,5.10
2023-05-07T22:06:06.508Z,5.10
2023-05-07T22:08:32.903Z,5.10
2023-05-07T22:10:59.303Z,4.82
2023-05-07T22:13:25.790Z,5.13
2023-05-07T22:15:57.456Z,5.00
2023-05-07T22:18:25.586Z,5.22
2023-05-07T22:20:52.230Z,5.13
2023-05-07T22:23:18.685Z,4.83
2023-05-07T22:25:45.063Z,4.75
2023-05-07T22:28:11.394Z,4.70
2023-05-07T22:30:37.844Z,4.88
2023-05-07T22:33:04.241Z,4.88
2023-05-07T22:35:30.682Z,5.10
2023-05-07T22:37:58.334Z,5.57
2023-05-07T22:42:51.115Z,5.50
2023-05-07T22:45:17.541Z,5.43
2023-05-07T22:47:43.947Z,5.47
2023-05-07T22:50:10.977Z,5.70
2023-05-07T22:52:37.459Z,5.82
2023-05-07T22:55:04.110Z,5.85
2023-05-07T22:57:30.498Z,6.33
2023-05-07T22:59:57.463Z,5.88
2023-05-07T23:02:24.109Z,5.93
2023-05-07T23:04:50.617Z,6.28
2023-05-07T23:07:16.973Z,6.05
2023-05-07T23:09:43.374Z,6.18
2023-05-07T23:12:09.768Z,5.95
2023-05-07T23:14:36.181Z,6.35
2023-05-07T23:17:02.761Z,6.18
2023-05-07T23:19:29.232Z,7.10
2023-05-07T23:21:55.665Z,6.22
2023-05-07T23:24:22.026Z,6.28
2023-05-07T23:26:48.387Z,6.30
2023-05-07T23:29:14.837Z,6.90
2023-05-07T23:31:41.276Z,6.32
2023-05-07T23:34:08.186Z,6.05
2023-05-07T23:36:34.600Z,6.28
2023-05-07T23:39:00.936Z,6.22
2023-05-07T23:41:27.369Z,6.13
2023-05-07T23:43:53.831Z,6.22
2023-05-07T23:46:20.417Z,6.50
2023-05-07T23:48:46.812Z,6.50
2023-05-07T23:51:13.204Z,6.68
2023-05-07T23:53:39.591Z,6.20
2023-05-07T23:56:06.155Z,6.10
2023-05-07T23:58:32.504Z,6.78
